Time,TemperatureF,DewpointF,PressureIn,WindDirection,WindDirectionDegrees,WindSpeedMPH,WindSpeedGustMPH,Humidity,HourlyPrecipIn,Conditions,Clouds,dailyrainin,SolarRadiationWatts/m^2,SoftwareType,DateUTC
2013-02-11 00:12:00,44.3,42.0,30.22,East,94,0.0,5.0,90,0.01,,,0.00,0,weatherlink.com 1.10,2013-02-11 05:12:00,
2013-02-11 00:27:00,44.5,42.0,30.22,ESE,107,0.0,3.0,90,0.00,,,0.00,0,weatherlink.com 1.10,2013-02-11 05:27:00,
2013-02-11 00:42:00,44.8,42.0,30.23,ESE,107,1.0,1.0,90,0.00,,,0.00,0,weatherlink.com 1.10,2013-02-11 05:42:00,
2013-02-11 00:57:00,45.1,43.0,30.21,SW,223,0.0,2.0,91,0.00,,,0.00,0,weatherlink.com 1.10,2013-02-11 05:57:00,
2013-02-11 01:12:00,45.7,44.0,30.20,SSE,159,0.0,4.0,92,0.00,,,0.00,0,weatherlink.com 1.10,2013-02-11 06:12:00,
2013-02-11 01:27:00,46.2,44.0,30.18,South,184,1.0,4.0,92,0.00,,,0.00,0,weatherlink.com 1.10,2013-02-11 06:27:00,
2013-02-11 01:42:00,46.9,45.0,30.18,SSE,150,2.0,7.0,91,0.00,,,0.00,0,weatherlink.com 1.10,2013-02-11 06:42:00,
2013-02-11 01:57:00,47.4,45.0,30.18,South,173,0.0,4.0,91,0.00,,,0.00,0,weatherlink.com 1.10,2013-02-11 06:57:00,
2013-02-11 02:12:00,47.8,45.0,30.18,South,185,1.0,4.0,91,0.00,,,0.00,0,weatherlink.com 1.10,2013-02-11 07:12:00,
2013-02-11 02:27:00,48.4,46.0,30.18,South,180,1.0,6.0,92,0.00,,,0.00,0,weatherlink.com 1.10,2013-02-11 07:27:00,
2013-02-11 02:42:00,49.4,47.0,30.17,SSE,154,0.0,8.0,91,0.00,,,0.00,0,weatherlink.com 1.10,2013-02-11 07:42:00,
2013-02-11 02:57:00,49.8,47.0,30.17,South,171,2.0,5.0,91,0.00,,,0.00,0,weatherlink.com 1.10,2013-02-11 07:57:00,
2013-02-11 03:12:00,49.9,47.0,30.16,SSE,163,0.0,3.0,91,0.00,,,0.00,0,weatherlink.com 1.10,2013-02-11 08:12:00,
2013-02-11 03:27:00,49.9,48.0,30.15,SSE,162,1.0,2.0,92,0.00,,,0.00,0,weatherlink.com 1.10,2013-02-11 08:27:00,
2013-02-11 03:42:00,50.0,48.0,30.14,SSE,163,0.0,3.0,92,0.00,,,0.00,0,weatherlink.com 1.10,2013-02-11 08:42:00,
2013-02-11 03:57:00,50.1,48.0,30.13,SE,138,2.0,3.0,92,0.00,,,0.00,0,weatherlink.com 1.10,2013-02-11 08:57:00,
2013-02-11 04:12:00,50.1,48.0,30.14,SE,128,0.0,1.0,93,0.00,,,0.00,0,weatherlink.com 1.10,2013-02-11 09:12:00,
2013-02-11 04:27:00,50.2,48.0,30.13,SE,130,0.0,3.0,93,0.00,,,0.00,0,weatherlink.com 1.10,2013-02-11 09:27:00,
2013-02-11 04:42:00,50.2,48.0,30.12,East,98,0.0,2.0,93,0.00,,,0.00,0,weatherlink.com 1.10,2013-02-11 09:42:00,
2013-02-11 04:57:00,50.2,49.0,30.12,SE,135,0.0,2.0,94,0.00,,,0.00,0,weatherlink.com 1.10,2013-02-11 09:57:00,
2013-02-11 05:12:00,50.6,49.0,30.12,SE,135,0.0,2.0,94,0.00,,,0.00,0,weatherlink.com 1.10,2013-02-11 10:12:00,
2013-02-11 05:27:00,50.7,49.0,30.11,East,98,0.0,2.0,94,0.00,,,0.00,0,weatherlink.com 1.10,2013-02-11 10:27:00,
2013-02-11 05:42:00,50.8,50.0,30.12,SE,134,0.0,3.0,95,0.00,,,0.00,0,weatherlink.com 1.10,2013-02-11 10:42:00,
2013-02-11 05:57:00,50.9,50.0,30.12,SE,134,0.0,2.0,95,0.00,,,0.00,0,weatherlink.com 1.10,2013-02-11 10:57:00,
2013-02-11 06:12:00,50.9,50.0,30.11,SE,134,0.0,0.0,95,0.01,,,0.01,0,weatherlink.com 1.10,2013-02-11 11:12:00,
2013-02-11 06:27:00,51.1,50.0,30.11,South,179,0.0,2.0,96,0.02,,,0.02,0,weatherlink.com 1.10,2013-02-11 11:27:00,
2013-02-11 06:42:00,51.4,50.0,30.11,South,179,0.0,1.0,96,0.02,,,0.02,0,weatherlink.com 1.10,2013-02-11 11:42:00,
2013-02-11 06:57:00,51.9,51.0,30.11,East,101,0.0,4.0,96,0.02,,,0.02,0,weatherlink.com 1.10,2013-02-11 11:57:00,
2013-02-11 07:12:00,52.3,51.0,30.11,SSE,163,2.0,3.0,96,0.02,,,0.03,0,weatherlink.com 1.10,2013-02-11 12:12:00,
2013-02-11 07:27:00,53.6,53.0,30.11,SSE,163,3.0,5.0,97,0.03,,,0.05,0,weatherlink.com 1.10,2013-02-11 12:27:00,
2013-02-11 07:43:00,54.4,54.0,30.11,South,174,3.0,6.0,97,0.03,,,0.05,0,weatherlink.com 1.10,2013-02-11 12:43:00,
2013-02-11 07:58:00,55.3,55.0,30.11,South,177,5.0,8.0,97,0.04,,,0.06,9,weatherlink.com 1.10,2013-02-11 12:58:00,
2013-02-11 08:13:00,56.2,55.0,30.10,SSE,162,6.0,10.0,97,0.03,,,0.06,16,weatherlink.com 1.10,2013-02-11 13:13:00,
2013-02-11 08:28:00,56.8,56.0,30.09,SSE,162,3.0,9.0,97,0.01,,,0.06,33,weatherlink.com 1.10,2013-02-11 13:28:00,
2013-02-11 08:43:00,57.1,56.0,30.07,SSW,196,2.0,12.0,96,0.01,,,0.06,42,weatherlink.com 1.10,2013-02-11 13:43:00,
2013-02-11 08:58:00,57.6,57.0,30.06,South,178,5.0,14.0,96,0.01,,,0.07,54,weatherlink.com 1.10,2013-02-11 13:58:00,
2013-02-11 09:13:00,58.0,57.0,30.06,SSE,158,5.0,11.0,95,0.01,,,0.07,77,weatherlink.com 1.10,2013-02-11 14:13:00,
2013-02-11 09:28:00,58.2,57.0,30.06,SSE,157,3.0,11.0,95,0.01,,,0.07,72,weatherlink.com 1.10,2013-02-11 14:28:00,
2013-02-11 09:43:00,58.6,57.0,30.06,SW,230,4.0,12.0,94,0.01,,,0.07,53,weatherlink.com 1.10,2013-02-11 14:43:00,
2013-02-11 09:58:00,58.7,57.0,30.07,SW,223,5.0,11.0,94,0.00,,,0.07,32,weatherlink.com 1.10,2013-02-11 14:58:00,
2013-02-11 10:13:00,58.9,57.0,30.08,West,259,8.0,9.0,94,0.00,,,0.07,18,weatherlink.com 1.10,2013-02-11 15:13:00,
2013-02-11 10:28:00,59.1,57.0,30.08,SSE,155,2.0,7.0,94,0.00,,,0.07,26,weatherlink.com 1.10,2013-02-11 15:28:00,
2013-02-11 10:43:00,59.2,58.0,30.07,WSW,254,3.0,8.0,94,0.00,,,0.07,44,weatherlink.com 1.10,2013-02-11 15:43:00,
2013-02-11 10:58:00,59.5,58.0,30.06,South,189,1.0,9.0,94,0.00,,,0.07,58,weatherlink.com 1.10,2013-02-11 15:58:00,
2013-02-11 11:13:00,59.9,58.0,30.05,SSW,211,0.0,8.0,93,0.00,,,0.07,47,weatherlink.com 1.10,2013-02-11 16:13:00,
2013-02-11 11:28:00,60.1,58.0,30.05,SSW,201,5.0,8.0,93,0.00,,,0.07,51,weatherlink.com 1.10,2013-02-11 16:28:00,
2013-02-11 11:43:00,60.4,58.0,30.04,SSW,211,2.0,7.0,93,0.00,,,0.07,76,weatherlink.com 1.10,2013-02-11 16:43:00,
2013-02-11 11:58:00,60.6,58.0,30.02,WSW,248,3.0,7.0,92,0.00,,,0.07,44,weatherlink.com 1.10,2013-02-11 16:58:00,
2013-02-11 12:13:00,60.8,59.0,30.03,SW,215,5.0,12.0,92,0.00,,,0.07,51,weatherlink.com 1.10,2013-02-11 17:13:00,
2013-02-11 12:28:00,60.9,59.0,30.02,SW,217,2.0,8.0,92,0.00,,,0.07,60,weatherlink.com 1.10,2013-02-11 17:28:00,
2013-02-11 12:43:00,61.2,59.0,30.02,SW,219,1.0,8.0,92,0.00,,,0.07,69,weatherlink.com 1.10,2013-02-11 17:43:00,
2013-02-11 12:58:00,61.4,59.0,30.01,SSW,208,3.0,8.0,92,0.00,,,0.07,98,weatherlink.com 1.10,2013-02-11 17:58:00,
2013-02-11 13:13:00,61.4,59.0,30.01,SW,219,6.0,9.0,92,0.00,,,0.07,53,weatherlink.com 1.10,2013-02-11 18:13:00,
2013-02-11 13:28:00,61.0,59.0,30.01,WSW,242,4.0,8.0,93,0.00,,,0.07,37,weatherlink.com 1.10,2013-02-11 18:28:00,
2013-02-11 13:43:00,60.9,59.0,30.00,SSW,209,4.0,7.0,94,0.00,,,0.07,72,weatherlink.com 1.10,2013-02-11 18:43:00,
2013-02-11 13:58:00,61.1,59.0,29.98,WSW,244,4.0,9.0,94,0.00,,,0.07,84,weatherlink.com 1.10,2013-02-11 18:58:00,
2013-02-11 14:13:00,61.2,59.0,29.98,South,184,2.0,9.0,93,0.00,,,0.07,42,weatherlink.com 1.10,2013-02-11 19:13:00,
2013-02-11 14:28:00,61.4,59.0,29.98,SSW,199,2.0,9.0,93,0.00,,,0.07,56,weatherlink.com 1.10,2013-02-11 19:28:00,
2013-02-11 14:43:00,61.8,60.0,29.98,SW,233,2.0,9.0,92,0.00,,,0.07,51,weatherlink.com 1.10,2013-02-11 19:43:00,
2013-02-11 14:59:00,62.2,59.0,29.97,SW,232,1.0,10.0,90,0.00,,,0.07,30,weatherlink.com 1.10,2013-02-11 19:59:00,
2013-02-11 15:13:00,62.4,60.0,29.98,SW,215,7.0,10.0,90,0.00,,,0.07,26,weatherlink.com 1.10,2013-02-11 20:13:00,
2013-02-11 15:29:00,62.6,59.0,29.98,SSW,194,4.0,6.0,89,0.00,,,0.07,60,weatherlink.com 1.10,2013-02-11 20:29:00,
2013-02-11 15:44:00,62.7,60.0,29.97,SW,217,4.0,12.0,89,0.00,,,0.07,35,weatherlink.com 1.10,2013-02-11 20:44:00,
2013-02-11 15:59:00,62.8,59.0,29.96,South,182,4.0,10.0,88,0.00,,,0.07,42,weatherlink.com 1.10,2013-02-11 20:59:00,
2013-02-11 16:14:00,63.0,59.0,29.95,SW,216,6.0,13.0,88,0.00,,,0.07,18,weatherlink.com 1.10,2013-02-11 21:14:00,
2013-02-11 16:29:00,63.0,59.0,29.95,SSW,211,6.0,10.0,88,0.00,,,0.07,32,weatherlink.com 1.10,2013-02-11 21:29:00,
2013-02-11 16:44:00,63.1,59.0,29.94,South,190,4.0,11.0,87,0.00,,,0.07,46,weatherlink.com 1.10,2013-02-11 21:44:00,
2013-02-11 16:59:00,63.3,59.0,29.94,West,261,5.0,12.0,86,0.00,,,0.07,32,weatherlink.com 1.10,2013-02-11 21:59:00,
2013-02-11 17:14:00,63.1,59.0,29.95,WSW,245,1.0,8.0,86,0.00,,,0.07,16,weatherlink.com 1.10,2013-02-11 22:14:00,
2013-02-11 17:29:00,63.2,59.0,29.95,WSW,238,5.0,11.0,86,0.00,,,0.07,9,weatherlink.com 1.10,2013-02-11 22:29:00,
2013-02-11 17:44:00,63.1,59.0,29.96,WSW,244,2.0,11.0,86,0.00,,,0.07,0,weatherlink.com 1.10,2013-02-11 22:44:00,
2013-02-11 17:59:00,63.0,59.0,29.95,SSW,195,4.0,12.0,86,0.00,,,0.07,0,weatherlink.com 1.10,2013-02-11 22:59:00,
2013-02-11 18:14:00,62.9,59.0,29.96,WSW,242,7.0,11.0,86,0.00,,,0.07,0,weatherlink.com 1.10,2013-02-11 23:14:00,
2013-02-11 18:29:00,62.8,59.0,29.96,WNW,297,4.0,12.0,86,0.00,,,0.07,0,weatherlink.com 1.10,2013-02-11 23:29:00,
2013-02-11 18:44:00,62.8,58.0,29.96,WSW,237,1.0,10.0,85,0.00,,,0.07,0,weatherlink.com 1.10,2013-02-11 23:44:00,
2013-02-11 18:59:00,62.6,58.0,29.97,WSW,238,3.0,12.0,85,0.00,,,0.07,0,weatherlink.com 1.10,2013-02-11 23:59:00,
2013-02-11 19:14:00,62.4,58.0,29.96,SW,217,0.0,9.0,85,0.00,,,0.07,0,weatherlink.com 1.10,2013-02-12 00:14:00,
2013-02-11 19:29:00,62.2,58.0,29.95,WSW,250,1.0,9.0,85,0.00,,,0.07,0,weatherlink.com 1.10,2013-02-12 00:29:00,
2013-02-11 19:44:00,61.9,57.0,29.98,WSW,241,6.0,10.0,85,0.00,,,0.07,0,weatherlink.com 1.10,2013-02-12 00:44:00,
2013-02-11 19:59:00,61.8,58.0,29.98,SSW,194,4.0,8.0,86,0.00,,,0.07,0,weatherlink.com 1.10,2013-02-12 00:59:00,
2013-02-11 20:14:00,61.6,57.0,29.97,WSW,244,3.0,8.0,86,0.00,,,0.07,0,weatherlink.com 1.10,2013-02-12 01:14:00,
2013-02-11 20:29:00,61.4,58.0,29.96,SW,232,5.0,8.0,87,0.00,,,0.07,0,weatherlink.com 1.10,2013-02-12 01:29:00,
2013-02-11 20:44:00,61.0,57.0,29.96,WSW,254,1.0,8.0,87,0.00,,,0.07,0,weatherlink.com 1.10,2013-02-12 01:44:00,
2013-02-11 20:59:00,60.8,57.0,29.97,West,259,3.0,7.0,87,0.00,,,0.07,0,weatherlink.com 1.10,2013-02-12 01:59:00,
2013-02-11 21:14:00,60.5,57.0,29.97,WSW,244,4.0,6.0,87,0.00,,,0.07,0,weatherlink.com 1.10,2013-02-12 02:14:00,
2013-02-11 21:29:00,60.5,57.0,29.96,SW,225,5.0,9.0,87,0.00,,,0.07,0,weatherlink.com 1.10,2013-02-12 02:29:00,
2013-02-11 21:44:00,60.4,56.0,29.95,SSW,209,5.0,10.0,86,0.00,,,0.07,0,weatherlink.com 1.10,2013-02-12 02:44:00,
2013-02-11 21:59:00,60.2,56.0,29.96,SW,236,2.0,8.0,86,0.00,,,0.07,0,weatherlink.com 1.10,2013-02-12 02:59:00,
2013-02-11 22:14:00,59.9,56.0,29.96,SSW,195,3.0,9.0,86,0.00,,,0.07,0,weatherlink.com 1.10,2013-02-12 03:14:00,
2013-02-11 22:29:00,59.7,56.0,29.96,SW,219,3.0,7.0,86,0.00,,,0.07,0,weatherlink.com 1.10,2013-02-12 03:29:00,
2013-02-11 22:44:00,59.4,55.0,29.96,WSW,247,5.0,9.0,86,0.00,,,0.07,0,weatherlink.com 1.10,2013-02-12 03:44:00,
2013-02-11 22:59:00,59.0,55.0,29.96,WSW,238,3.0,5.0,86,0.00,,,0.07,0,weatherlink.com 1.10,2013-02-12 03:59:00,
2013-02-11 23:14:00,58.6,55.0,29.96,SW,230,2.0,6.0,87,0.00,,,0.07,0,weatherlink.com 1.10,2013-02-12 04:14:00,
2013-02-11 23:29:00,58.5,55.0,29.96,SW,222,3.0,4.0,87,0.00,,,0.07,0,weatherlink.com 1.10,2013-02-12 04:29:00,
2013-02-11 23:44:00,58.1,54.0,29.96,WSW,252,0.0,5.0,87,0.00,,,0.07,0,weatherlink.com 1.10,2013-02-12 04:44:00,
2013-02-11 23:59:00,57.8,54.0,29.96,SW,234,1.0,7.0,88,0.00,,,0.07,0,weatherlink.com 1.10,2013-02-12 04:59:00,